Latest Conditions
At L.F.Wade Int. Airport
Recorded at 4:55 pm
Overcast
Temp.: 
25°C/76°F
Humidity: 
79%
Wind: 
SW 22KT
or 25mph
UV Index: 
1
Island Observations
 
Observations
Friday, May 26, 2017

Observations are in local time and taken at least once an hour, or upon the start and end of specified events such as showers and thunderstorms.

Time Sky / Weather Wind Speed/Gusts Temp. R.H. Pressure
     knots (mph)  °C (°F)  %  mb / "Hg
 16:55 Overcast  SW 22/0 (25/0) 25(76) 79 1017 / 30.03
 16:43 Overcast  SW 23/0 (26/0) 25(76) 79 1017 / 30.03
 15:55 Overcast  SW 22/0 (25/0) 25(77) 78 1018 / 30.05
 14:55 Mostly Cloudy  SW 23/0 (26/0) 25(78) 77 1018 / 30.07
 13:55 Mostly Cloudy  SW 22/0 (25/0) 25(77) 77 1018 / 30.07
 12:55 Mostly Cloudy  SW 23/0 (26/0) 26(78) 75 1018 / 30.07
 11:55 Mostly Cloudy  SW 21/0 (24/0) 26(79) 76 1019 / 30.08
 10:55 Mostly Cloudy  SW 21/0 (24/0) 25(77) 79 1018 / 30.07
 09:55 Mostly Cloudy  SSW 19/0 (22/0) 25(77) 82 1019 / 30.08
 08:55 Mostly Cloudy  SSW 20/0 (23/0) 24(75) 85 1018 / 30.07
 07:55 Overcast  SSW 18/0 (21/0) 23(74) 86 1019 / 30.09
 06:55 Overcast  SW 17/0 (20/0) 23(74) 87 1020 / 30.11
 06:12 Mostly Cloudy  SW 17/0 (20/0) 23(74) 88 1019 / 30.10
 05:55 Overcast Showers SW 15/0 (17/0) 23(74) 88 1020 / 30.11
 05:10 Overcast  SW 14/0 (16/0) 23(74) 88 1020 / 30.11
 04:55 Overcast  SW 16/0 (18/0) 23(73) 88 1020 / 30.11
 03:55 Mostly Cloudy  SW 15/0 (17/0) 23(74) 88 1020 / 30.12
 02:55 Mostly Cloudy  SW 17/0 (20/0) 23(74) 89 1020 / 30.12
 02:22 Mostly Cloudy  SW 17/0 (20/0) 23(73) 89 1020 / 30.13
 01:55 Mostly Cloudy  SW 17/0 (20/0) 23(74) 88 1020 / 30.13
 00:55 Mostly Cloudy  SW 16/0 (18/0) 23(74) 88 1021 / 30.14
 23:55 Mostly Cloudy  SSW 17/0 (20/0) 23(74) 88 1020 / 30.13
 22:55 Mostly Cloudy  SSW 17/0 (20/0) 23(74) 88 1020 / 30.13
 21:55 Mostly Cloudy  SSW 16/0 (18/0) 23(74) 88 1020 / 30.11
 20:55 Mostly Cloudy  SSW 16/0 (18/0) 23(74) 88 1020 / 30.11
 20:20 Mostly Cloudy  SSW 16/0 (18/0) 23(74) 88 1020 / 30.11
 19:55 Mostly Cloudy  SSW 16/0 (18/0) 24(74) 87 1019 / 30.10
 19:38 Partly Cloudy  SSW 15/0 (17/0) 24(75) 86 1019 / 30.09
 19:25 Mostly Cloudy  SSW 16/0 (18/0) 24(75) 86 1019 / 30.09
 18:55 Partly Cloudy  SSW 15/0 (17/0) 24(76) 85 1019 / 30.09
 18:34 Partly Cloudy  SSW 16/0 (18/0) 24(76) 84 1019 / 30.09
 17:55 Mostly Cloudy  SW 13/0 (15/0) 25(77) 82 1020 / 30.11
 17:04 Mostly Cloudy  SSW 14/0 (16/0) 25(78) 81 1020 / 30.11
 16:55 Partly Cloudy  SSW 15/0 (17/0) 25(78) 80 1020 / 30.11
 15:55 Few Clouds  SSW 16/0 (18/0) 26(79) 78 1020 / 30.12
 14:55 Few Clouds  SSW 16/0 (18/0) 26(79) 78 1020 / 30.13
 13:55 Mostly Cloudy  SW 15/0 (17/0) 26(80) 76 1021 / 30.15
 12:55 Partly Cloudy  SSW 16/0 (18/0) 26(78) 78 1021 / 30.15
 11:55 Partly Cloudy  SSW 17/0 (20/0) 25(78) 80 1021 / 30.16
 11:20 Mostly Cloudy  SSW 15/0 (17/0) 24(76) 85 1021 / 30.16
 10:55 Mostly Cloudy  SSW 16/0 (18/0) 23(74) 90 1021 / 30.16
 10:46 Mostly Cloudy  SSW 15/0 (17/0) 23(74) 90 1021 / 30.16
 10:11 Overcast Drizzle SSW 15/0 (17/0) 23(73) 90 1021 / 30.16
 09:56 Overcast Drizzle SSW 16/0 (18/0) 24(74) 87 1021 / 30.16
 09:55 Overcast Showers SSW 16/0 (18/0) 24(75) 85 1021 / 30.16
 08:55 Overcast  SSW 15/0 (17/0) 23(74) 87 1021 / 30.15
 07:55 Overcast  SSW 14/0 (16/0) 23(73) 89 1021 / 30.14
 06:55 Mostly Cloudy  SSW 13/0 (15/0) 23(73) 89 1020 / 30.12
 05:55 Mostly Cloudy  SSW 13/0 (15/0) 23(73) 89 1019 / 30.10
 04:55 Mostly Cloudy  SSW 14/0 (16/0) 23(73) 88 1020 / 30.11
 03:55 Mostly Cloudy  SW 15/0 (17/0) 23(73) 88 1020 / 30.11
 02:55 Mostly Cloudy  SSW 16/0 (18/0) 22(72) 88 1020 / 30.11
 01:55 Partly Cloudy  SW 16/0 (18/0) 23(73) 88 1020 / 30.13
 00:55 Partly Cloudy  SW 16/0 (18/0) 22(72) 89 1021 / 30.14
 23:55 Mostly Cloudy  SSW 16/0 (18/0) 23(73) 89 1021 / 30.15
 22:55 Partly Cloudy  SW 15/0 (17/0) 23(73) 89 1021 / 30.14
 21:55 Mostly Cloudy  SW 14/0 (16/0) 23(73) 87 1020 / 30.13
 20:55 Mostly Cloudy  SW 14/0 (16/0) 23(74) 87 1020 / 30.12
 19:55 Mostly Cloudy  SW 15/0 (17/0) 24(75) 83 1019 / 30.10
 18:55 Mostly Cloudy  SW 15/0 (17/0) 25(76) 80 1019 / 30.08
 17:55 Mostly Cloudy  SW 15/0 (17/0) 24(76) 81 1019 / 30.08
 16:55 Mostly Cloudy  SW 14/0 (16/0) 25(77) 79 1018 / 30.07
 15:55 Mostly Cloudy  SW 15/0 (17/0) 26(78) 76 1019 / 30.08
 14:55 Mostly Cloudy  SW 15/0 (17/0) 25(78) 78 1019 / 30.10
 13:55 Mostly Cloudy  SW 16/0 (18/0) 26(79) 75 1019 / 30.10
 12:55 Mostly Cloudy  SW 14/0 (16/0) 26(79) 74 1019 / 30.10
 11:55 Mostly Cloudy  SW 15/0 (17/0) 26(78) 75 1019 / 30.10
 10:55 Mostly Cloudy  SW 16/0 (18/0) 25(77) 77 1019 / 30.10
 09:55 Mostly Cloudy  SW 15/0 (17/0) 24(76) 78 1019 / 30.09
 08:55 Mostly Cloudy  SW 15/0 (17/0) 24(74) 81 1018 / 30.07
 07:55 Mostly Cloudy  SW 13/0 (15/0) 23(73) 81 1018 / 30.07
 06:55 Mostly Cloudy  SW 14/0 (16/0) 22(72) 84 1018 / 30.07
 05:55 Mostly Cloudy  SW 15/0 (17/0) 22(71) 84 1018 / 30.06
 04:55 Few Clouds  SW 14/0 (16/0) 22(71) 86 1018 / 30.05
 03:55 Partly Cloudy  SW 16/0 (18/0) 22(72) 84 1018 / 30.07
 02:55 Partly Cloudy  SW 17/0 (20/0) 22(72) 86 1018 / 30.07
 01:55 Partly Cloudy  SW 15/0 (17/0) 22(72) 84 1019 / 30.09
 01:32 Partly Cloudy  SW 16/0 (18/0) 22(72) 85 1019 / 30.10
 00:55 Mostly Cloudy  SSW 17/0 (20/0) 22(72) 85 1020 / 30.11
 00:17 Mostly Cloudy  SSW 16/0 (18/0) 23(73) 85 1019 / 30.10
 23:55 Mostly Cloudy  SSW 17/0 (20/0) 23(73) 84 1020 / 30.11
 23:22 Partly Cloudy  SSW 16/0 (18/0) 23(73) 84 1020 / 30.11
 22:55 Mostly Cloudy  SSW 15/0 (17/0) 23(73) 84 1020 / 30.11
 21:55 Mostly Cloudy  SSW 14/0 (16/0) 23(73) 82 1019 / 30.10
 20:55 Mostly Cloudy  SSW 13/0 (15/0) 23(73) 80 1019 / 30.10
 19:55 Mostly Cloudy  SSW 12/0 (14/0) 23(74) 78 1019 / 30.10
 18:55 Mostly Cloudy  SSW 12/0 (14/0) 24(74) 73 1019 / 30.09
 17:55 Mostly Cloudy  SSW 13/0 (15/0) 24(75) 71 1019 / 30.09
 16:55 Partly Cloudy  SW 13/0 (15/0) 24(76) 68 1019 / 30.09
 15:55 Partly Cloudy  SSW 13/0 (15/0) 25(76) 70 1019 / 30.10
 14:55 Partly Cloudy  SW 10/0 (12/0) 25(76) 69 1020 / 30.11
 13:55 Partly Cloudy  SSW 10/0 (12/0) 25(78) 66 1020 / 30.12
 12:55 Partly Cloudy  SSW 11/0 (13/0) 24(75) 71 1020 / 30.12
 11:55 Mostly Cloudy  SSW 11/0 (13/0) 24(75) 68 1021 / 30.14
 10:55 Mostly Cloudy  SW 11/0 (13/0) 24(74) 73 1020 / 30.13
 09:55 Partly Cloudy  SW 9/0 (10/0) 24(75) 72 1020 / 30.13
 08:55 Mostly Cloudy  SW 9/0 (10/0) 23(73) 76 1020 / 30.13
 07:55 Mostly Cloudy  WSW 8/0 (9/0) 22(71) 83 1020 / 30.12
 06:55 Mostly Cloudy  S 7/0 (8/0) 21(69) 89 1020 / 30.12
 06:44 Mostly Cloudy Showers S 7/0 (8/0) 21(69) 89 1020 / 30.12
Observations from our AWOS sites are available here (password and username are both 'guest').